sensor_id;sensor_type;location;lat;lon;timestamp;P1;durP1;ratioP1;P2;durP2;ratioP2
27313;SDS011;14800;48.174;9.798;2022-08-19T00:02:03;12.25;;;11.00;;
27313;SDS011;14800;48.174;9.798;2022-08-19T00:04:31;13.30;;;12.00;;
27313;SDS011;14800;48.174;9.798;2022-08-19T00:07:01;13.15;;;11.75;;
27313;SDS011;14800;48.174;9.798;2022-08-19T00:09:28;13.50;;;12.15;;
27313;SDS011;14800;48.174;9.798;2022-08-19T00:11:54;13.50;;;12.20;;
27313;SDS011;14800;48.174;9.798;2022-08-19T00:14:20;13.77;;;12.43;;
27313;SDS011;14800;48.174;9.798;2022-08-19T00:16:47;13.45;;;11.98;;
27313;SDS011;14800;48.174;9.798;2022-08-19T00:19:14;14.20;;;12.70;;
27313;SDS011;14800;48.174;9.798;2022-08-19T00:21:41;14.13;;;12.73;;
27313;SDS011;14800;48.174;9.798;2022-08-19T00:24:08;13.80;;;12.43;;
27313;SDS011;14800;48.174;9.798;2022-08-19T00:26:35;14.90;;;13.40;;
27313;SDS011;14800;48.174;9.798;2022-08-19T00:29:02;14.77;;;13.27;;
27313;SDS011;14800;48.174;9.798;2022-08-19T00:31:31;14.13;;;12.70;;
27313;SDS011;14800;48.174;9.798;2022-08-19T00:33:56;13.27;;;11.93;;
27313;SDS011;14800;48.174;9.798;2022-08-19T00:36:22;13.55;;;12.25;;
27313;SDS011;14800;48.174;9.798;2022-08-19T00:38:48;14.57;;;13.07;;
27313;SDS011;14800;48.174;9.798;2022-08-19T00:41:17;14.48;;;13.07;;
27313;SDS011;14800;48.174;9.798;2022-08-19T00:44:08;14.85;;;13.35;;
27313;SDS011;14800;48.174;9.798;2022-08-19T00:46:40;15.93;;;14.23;;
27313;SDS011;14800;48.174;9.798;2022-08-19T00:49:10;15.35;;;13.85;;
27313;SDS011;14800;48.174;9.798;2022-08-19T00:51:40;16.45;;;14.85;;
27313;SDS011;14800;48.174;9.798;2022-08-19T00:54:08;16.17;;;14.60;;
27313;SDS011;14800;48.174;9.798;2022-08-19T00:56:34;17.63;;;15.82;;
27313;SDS011;14800;48.174;9.798;2022-08-19T00:59:01;16.52;;;14.82;;
27313;SDS011;14800;48.174;9.798;2022-08-19T01:01:27;17.42;;;15.63;;
27313;SDS011;14800;48.174;9.798;2022-08-19T01:03:53;18.05;;;16.15;;
27313;SDS011;14800;48.174;9.798;2022-08-19T01:06:19;18.10;;;16.17;;
27313;SDS011;14800;48.174;9.798;2022-08-19T01:08:45;19.63;;;17.13;;
27313;SDS011;14800;48.174;9.798;2022-08-19T01:11:10;19.48;;;17.42;;
27313;SDS011;14800;48.174;9.798;2022-08-19T01:13:37;18.85;;;16.70;;
27313;SDS011;14800;48.174;9.798;2022-08-19T01:16:04;18.77;;;16.75;;
27313;SDS011;14800;48.174;9.798;2022-08-19T01:18:35;19.38;;;17.38;;
27313;SDS011;14800;48.174;9.798;2022-08-19T01:21:08;18.13;;;16.27;;
27313;SDS011;14800;48.174;9.798;2022-08-19T01:23:42;18.88;;;16.48;;
27313;SDS011;14800;48.174;9.798;2022-08-19T01:26:16;20.73;;;17.23;;
27313;SDS011;14800;48.174;9.798;2022-08-19T01:28:46;17.88;;;16.10;;
27313;SDS011;14800;48.174;9.798;2022-08-19T01:31:16;18.77;;;16.83;;
27313;SDS011;14800;48.174;9.798;2022-08-19T01:33:44;18.58;;;16.65;;
27313;SDS011;14800;48.174;9.798;2022-08-19T01:36:14;19.27;;;17.38;;
27313;SDS011;14800;48.174;9.798;2022-08-19T01:39:08;17.08;;;15.35;;
27313;SDS011;14800;48.174;9.798;2022-08-19T01:41:35;18.33;;;16.27;;
27313;SDS011;14800;48.174;9.798;2022-08-19T01:44:01;17.33;;;15.57;;
27313;SDS011;14800;48.174;9.798;2022-08-19T01:46:29;17.83;;;15.95;;
27313;SDS011;14800;48.174;9.798;2022-08-19T01:48:55;16.75;;;15.05;;
27313;SDS011;14800;48.174;9.798;2022-08-19T01:51:21;17.27;;;15.48;;
27313;SDS011;14800;48.174;9.798;2022-08-19T01:53:48;16.65;;;15.02;;
27313;SDS011;14800;48.174;9.798;2022-08-19T01:56:15;17.33;;;15.55;;
27313;SDS011;14800;48.174;9.798;2022-08-19T01:58:45;16.45;;;14.75;;
27313;SDS011;14800;48.174;9.798;2022-08-19T02:01:32;16.10;;;14.40;;
27313;SDS011;14800;48.174;9.798;2022-08-19T02:03:59;16.05;;;14.35;;
27313;SDS011;14800;48.174;9.798;2022-08-19T02:06:27;20.02;;;15.68;;
27313;SDS011;14800;48.174;9.798;2022-08-19T02:08:53;16.73;;;14.98;;
27313;SDS011;14800;48.174;9.798;2022-08-19T02:11:21;17.80;;;14.93;;
27313;SDS011;14800;48.174;9.798;2022-08-19T02:13:51;17.15;;;15.18;;
27313;SDS011;14800;48.174;9.798;2022-08-19T02:16:18;16.42;;;14.73;;
27313;SDS011;14800;48.174;9.798;2022-08-19T02:18:44;16.85;;;15.15;;
27313;SDS011;14800;48.174;9.798;2022-08-19T02:21:13;17.10;;;15.30;;
27313;SDS011;14800;48.174;9.798;2022-08-19T02:23:40;17.05;;;15.05;;
27313;SDS011;14800;48.174;9.798;2022-08-19T02:26:07;16.35;;;14.73;;
27313;SDS011;14800;48.174;9.798;2022-08-19T02:28:34;16.58;;;14.27;;
27313;SDS011;14800;48.174;9.798;2022-08-19T02:30:59;14.57;;;13.07;;
27313;SDS011;14800;48.174;9.798;2022-08-19T02:33:25;16.48;;;14.77;;
27313;SDS011;14800;48.174;9.798;2022-08-19T02:35:51;18.60;;;16.60;;
27313;SDS011;14800;48.174;9.798;2022-08-19T02:38:17;18.55;;;15.40;;
27313;SDS011;14800;48.174;9.798;2022-08-19T02:43:20;17.02;;;14.93;;
27313;SDS011;14800;48.174;9.798;2022-08-19T02:45:47;17.50;;;15.65;;
27313;SDS011;14800;48.174;9.798;2022-08-19T02:48:17;19.88;;;14.82;;
27313;SDS011;14800;48.174;9.798;2022-08-19T02:50:44;18.05;;;16.13;;
27313;SDS011;14800;48.174;9.798;2022-08-19T02:53:10;19.25;;;15.75;;
27313;SDS011;14800;48.174;9.798;2022-08-19T02:55:36;18.33;;;16.17;;
27313;SDS011;14800;48.174;9.798;2022-08-19T02:58:08;18.30;;;15.10;;
27313;SDS011;14800;48.174;9.798;2022-08-19T03:00:34;17.98;;;16.08;;
27313;SDS011;14800;48.174;9.798;2022-08-19T03:03:00;17.48;;;15.55;;
27313;SDS011;14800;48.174;9.798;2022-08-19T03:05:25;18.83;;;15.73;;
27313;SDS011;14800;48.174;9.798;2022-08-19T03:07:52;17.45;;;15.43;;
27313;SDS011;14800;48.174;9.798;2022-08-19T03:10:18;19.30;;;16.05;;
27313;SDS011;14800;48.174;9.798;2022-08-19T03:12:43;17.40;;;15.60;;
27313;SDS011;14800;48.174;9.798;2022-08-19T03:15:11;15.95;;;14.30;;
27313;SDS011;14800;48.174;9.798;2022-08-19T03:17:36;16.95;;;15.23;;
27313;SDS011;14800;48.174;9.798;2022-08-19T03:20:02;16.20;;;14.50;;
27313;SDS011;14800;48.174;9.798;2022-08-19T03:22:29;16.30;;;14.65;;
27313;SDS011;14800;48.174;9.798;2022-08-19T03:24:55;16.60;;;14.82;;
27313;SDS011;14800;48.174;9.798;2022-08-19T03:27:21;16.00;;;14.23;;
27313;SDS011;14800;48.174;9.798;2022-08-19T03:29:47;16.98;;;15.05;;
27313;SDS011;14800;48.174;9.798;2022-08-19T03:32:12;17.88;;;15.63;;
27313;SDS011;14800;48.174;9.798;2022-08-19T03:34:38;16.67;;;14.93;;
27313;SDS011;14800;48.174;9.798;2022-08-19T03:37:08;17.38;;;15.57;;
27313;SDS011;14800;48.174;9.798;2022-08-19T03:39:38;16.63;;;14.93;;
27313;SDS011;14800;48.174;9.798;2022-08-19T03:42:05;16.40;;;14.65;;
27313;SDS011;14800;48.174;9.798;2022-08-19T03:44:31;16.17;;;14.50;;
27313;SDS011;14800;48.174;9.798;2022-08-19T03:47:02;16.48;;;14.77;;
27313;SDS011;14800;48.174;9.798;2022-08-19T03:49:30;16.42;;;14.70;;
27313;SDS011;14800;48.174;9.798;2022-08-19T03:51:58;16.77;;;15.05;;
27313;SDS011;14800;48.174;9.798;2022-08-19T03:54:27;18.27;;;16.38;;
27313;SDS011;14800;48.174;9.798;2022-08-19T03:56:53;18.73;;;16.55;;
27313;SDS011;14800;48.174;9.798;2022-08-19T03:59:22;19.05;;;16.95;;
27313;SDS011;14800;48.174;9.798;2022-08-19T04:01:51;17.85;;;15.63;;
27313;SDS011;14800;48.174;9.798;2022-08-19T04:04:20;18.90;;;16.42;;
27313;SDS011;14800;48.174;9.798;2022-08-19T04:06:47;18.23;;;16.20;;
27313;SDS011;14800;48.174;9.798;2022-08-19T04:09:12;18.73;;;16.73;;
27313;SDS011;14800;48.174;9.798;2022-08-19T04:11:42;19.65;;;17.33;;
27313;SDS011;14800;48.174;9.798;2022-08-19T04:14:20;19.55;;;16.95;;
27313;SDS011;14800;48.174;9.798;2022-08-19T04:16:49;18.20;;;16.27;;
27313;SDS011;14800;48.174;9.798;2022-08-19T04:19:16;21.05;;;17.70;;
27313;SDS011;14800;48.174;9.798;2022-08-19T04:21:43;20.95;;;17.98;;
27313;SDS011;14800;48.174;9.798;2022-08-19T04:24:12;21.80;;;17.55;;
27313;SDS011;14800;48.174;9.798;2022-08-19T04:26:38;19.98;;;17.13;;
27313;SDS011;14800;48.174;9.798;2022-08-19T04:29:09;21.30;;;16.08;;
27313;SDS011;14800;48.174;9.798;2022-08-19T04:31:55;21.60;;;17.80;;
27313;SDS011;14800;48.174;9.798;2022-08-19T04:34:22;21.73;;;18.23;;
27313;SDS011;14800;48.174;9.798;2022-08-19T04:36:50;20.13;;;17.23;;
27313;SDS011;14800;48.174;9.798;2022-08-19T04:39:21;22.83;;;19.23;;
27313;SDS011;14800;48.174;9.798;2022-08-19T04:42:08;24.92;;;18.88;;
27313;SDS011;14800;48.174;9.798;2022-08-19T04:44:52;23.03;;;18.17;;
27313;SDS011;14800;48.174;9.798;2022-08-19T04:47:19;24.45;;;18.98;;
27313;SDS011;14800;48.174;9.798;2022-08-19T04:49:44;24.83;;;19.88;;
27313;SDS011;14800;48.174;9.798;2022-08-19T04:52:10;23.10;;;18.77;;
27313;SDS011;14800;48.174;9.798;2022-08-19T04:54:35;24.35;;;19.77;;
27313;SDS011;14800;48.174;9.798;2022-08-19T04:57:01;23.35;;;19.55;;
27313;SDS011;14800;48.174;9.798;2022-08-19T04:59:27;23.33;;;19.02;;
27313;SDS011;14800;48.174;9.798;2022-08-19T05:01:53;23.83;;;19.27;;
27313;SDS011;14800;48.174;9.798;2022-08-19T05:04:19;27.30;;;19.95;;
27313;SDS011;14800;48.174;9.798;2022-08-19T05:06:46;24.85;;;19.92;;
27313;SDS011;14800;48.174;9.798;2022-08-19T05:09:13;25.25;;;20.30;;
27313;SDS011;14800;48.174;9.798;2022-08-19T05:11:39;25.58;;;20.83;;
27313;SDS011;14800;48.174;9.798;2022-08-19T05:14:07;25.00;;;20.23;;
27313;SDS011;14800;48.174;9.798;2022-08-19T05:16:34;26.83;;;19.80;;
27313;SDS011;14800;48.174;9.798;2022-08-19T05:19:00;25.52;;;19.90;;
27313;SDS011;14800;48.174;9.798;2022-08-19T05:21:44;24.73;;;20.15;;
27313;SDS011;14800;48.174;9.798;2022-08-19T05:24:29;24.20;;;18.80;;
27313;SDS011;14800;48.174;9.798;2022-08-19T05:26:55;24.33;;;19.38;;
27313;SDS011;14800;48.174;9.798;2022-08-19T05:29:22;24.73;;;20.05;;
27313;SDS011;14800;48.174;9.798;2022-08-19T05:31:50;25.67;;;20.13;;
27313;SDS011;14800;48.174;9.798;2022-08-19T05:34:17;26.25;;;19.85;;
27313;SDS011;14800;48.174;9.798;2022-08-19T05:36:46;25.77;;;19.75;;
27313;SDS011;14800;48.174;9.798;2022-08-19T05:39:14;23.65;;;19.00;;
27313;SDS011;14800;48.174;9.798;2022-08-19T05:41:43;26.15;;;19.25;;
27313;SDS011;14800;48.174;9.798;2022-08-19T05:44:09;25.85;;;19.70;;
27313;SDS011;14800;48.174;9.798;2022-08-19T05:46:36;27.73;;;19.85;;
27313;SDS011;14800;48.174;9.798;2022-08-19T05:49:03;28.73;;;20.27;;
27313;SDS011;14800;48.174;9.798;2022-08-19T05:51:33;24.42;;;19.60;;
27313;SDS011;14800;48.174;9.798;2022-08-19T05:54:01;26.17;;;20.13;;
27313;SDS011;14800;48.174;9.798;2022-08-19T05:56:27;27.30;;;20.33;;
27313;SDS011;14800;48.174;9.798;2022-08-19T05:58:55;27.95;;;19.73;;
27313;SDS011;14800;48.174;9.798;2022-08-19T06:01:21;26.42;;;20.63;;
27313;SDS011;14800;48.174;9.798;2022-08-19T06:03:47;28.08;;;20.83;;
27313;SDS011;14800;48.174;9.798;2022-08-19T06:06:13;26.45;;;20.58;;
27313;SDS011;14800;48.174;9.798;2022-08-19T06:08:40;28.20;;;21.70;;
27313;SDS011;14800;48.174;9.798;2022-08-19T06:13:49;30.00;;;21.38;;
27313;SDS011;14800;48.174;9.798;2022-08-19T06:16:20;28.15;;;21.23;;
27313;SDS011;14800;48.174;9.798;2022-08-19T06:18:51;28.73;;;20.77;;
27313;SDS011;14800;48.174;9.798;2022-08-19T06:21:19;26.95;;;20.65;;
27313;SDS011;14800;48.174;9.798;2022-08-19T06:23:46;29.02;;;19.85;;
27313;SDS011;14800;48.174;9.798;2022-08-19T06:26:13;27.02;;;20.95;;
27313;SDS011;14800;48.174;9.798;2022-08-19T06:28:40;28.38;;;21.45;;
27313;SDS011;14800;48.174;9.798;2022-08-19T06:31:12;28.35;;;20.75;;
27313;SDS011;14800;48.174;9.798;2022-08-19T06:33:51;29.33;;;20.85;;
27313;SDS011;14800;48.174;9.798;2022-08-19T06:36:18;28.67;;;21.63;;
27313;SDS011;14800;48.174;9.798;2022-08-19T06:38:45;27.67;;;20.50;;
27313;SDS011;14800;48.174;9.798;2022-08-19T06:41:11;28.70;;;20.88;;
27313;SDS011;14800;48.174;9.798;2022-08-19T06:43:36;30.40;;;21.30;;
27313;SDS011;14800;48.174;9.798;2022-08-19T06:46:02;30.65;;;21.25;;
27313;SDS011;14800;48.174;9.798;2022-08-19T06:48:28;28.50;;;21.17;;
27313;SDS011;14800;48.174;9.798;2022-08-19T06:50:54;29.02;;;21.70;;
27313;SDS011;14800;48.174;9.798;2022-08-19T06:53:20;26.73;;;20.45;;
27313;SDS011;14800;48.174;9.798;2022-08-19T06:55:46;31.48;;;22.13;;
27313;SDS011;14800;48.174;9.798;2022-08-19T06:58:12;26.35;;;20.42;;
27313;SDS011;14800;48.174;9.798;2022-08-19T07:00:38;29.88;;;21.63;;
27313;SDS011;14800;48.174;9.798;2022-08-19T07:03:04;32.75;;;22.88;;
27313;SDS011;14800;48.174;9.798;2022-08-19T07:05:30;28.55;;;20.58;;
27313;SDS011;14800;48.174;9.798;2022-08-19T07:07:55;39.15;;;28.08;;
27313;SDS011;14800;48.174;9.798;2022-08-19T07:10:22;31.17;;;23.73;;
27313;SDS011;14800;48.174;9.798;2022-08-19T07:12:47;32.30;;;22.17;;
27313;SDS011;14800;48.174;9.798;2022-08-19T07:15:14;31.30;;;22.35;;
27313;SDS011;14800;48.174;9.798;2022-08-19T07:17:41;32.25;;;22.83;;
27313;SDS011;14800;48.174;9.798;2022-08-19T07:20:08;31.60;;;22.10;;
27313;SDS011;14800;48.174;9.798;2022-08-19T07:22:35;31.60;;;22.35;;
27313;SDS011;14800;48.174;9.798;2022-08-19T07:25:01;30.80;;;22.67;;
27313;SDS011;14800;48.174;9.798;2022-08-19T07:27:28;31.55;;;21.65;;
27313;SDS011;14800;48.174;9.798;2022-08-19T07:29:54;32.10;;;22.60;;
27313;SDS011;14800;48.174;9.798;2022-08-19T07:32:20;31.02;;;22.35;;
27313;SDS011;14800;48.174;9.798;2022-08-19T07:34:46;29.38;;;21.95;;
27313;SDS011;14800;48.174;9.798;2022-08-19T07:37:11;31.38;;;22.63;;
27313;SDS011;14800;48.174;9.798;2022-08-19T07:39:37;32.78;;;23.08;;
27313;SDS011;14800;48.174;9.798;2022-08-19T07:42:05;33.40;;;23.88;;
27313;SDS011;14800;48.174;9.798;2022-08-19T07:44:34;30.33;;;22.80;;
27313;SDS011;14800;48.174;9.798;2022-08-19T07:47:00;29.67;;;22.85;;
27313;SDS011;14800;48.174;9.798;2022-08-19T07:49:26;32.22;;;23.35;;
27313;SDS011;14800;48.174;9.798;2022-08-19T07:51:56;32.60;;;23.17;;
27313;SDS011;14800;48.174;9.798;2022-08-19T07:54:28;33.03;;;22.80;;
27313;SDS011;14800;48.174;9.798;2022-08-19T07:56:56;35.00;;;24.00;;
27313;SDS011;14800;48.174;9.798;2022-08-19T07:59:22;32.80;;;23.70;;
27313;SDS011;14800;48.174;9.798;2022-08-19T08:01:49;30.45;;;23.60;;
27313;SDS011;14800;48.174;9.798;2022-08-19T08:04:16;33.05;;;24.27;;
27313;SDS011;14800;48.174;9.798;2022-08-19T08:09:45;31.08;;;22.45;;
27313;SDS011;14800;48.174;9.798;2022-08-19T08:12:12;33.72;;;24.55;;
27313;SDS011;14800;48.174;9.798;2022-08-19T08:17:14;32.45;;;23.92;;
27313;SDS011;14800;48.174;9.798;2022-08-19T08:19:41;32.25;;;23.60;;
27313;SDS011;14800;48.174;9.798;2022-08-19T08:22:08;31.30;;;23.80;;
27313;SDS011;14800;48.174;9.798;2022-08-19T08:24:55;31.95;;;23.60;;
27313;SDS011;14800;48.174;9.798;2022-08-19T08:27:23;35.45;;;24.77;;
27313;SDS011;14800;48.174;9.798;2022-08-19T08:29:49;34.63;;;25.08;;
27313;SDS011;14800;48.174;9.798;2022-08-19T08:32:15;33.85;;;24.55;;
27313;SDS011;14800;48.174;9.798;2022-08-19T08:34:41;34.40;;;25.63;;
27313;SDS011;14800;48.174;9.798;2022-08-19T08:37:07;35.78;;;24.98;;
27313;SDS011;14800;48.174;9.798;2022-08-19T08:39:32;35.55;;;26.02;;
27313;SDS011;14800;48.174;9.798;2022-08-19T08:42:06;35.50;;;25.80;;
27313;SDS011;14800;48.174;9.798;2022-08-19T08:47:43;34.13;;;24.55;;
27313;SDS011;14800;48.174;9.798;2022-08-19T08:52:47;34.42;;;25.33;;
27313;SDS011;14800;48.174;9.798;2022-08-19T08:55:17;32.58;;;24.45;;
27313;SDS011;14800;48.174;9.798;2022-08-19T09:00:24;31.83;;;22.48;;
27313;SDS011;14800;48.174;9.798;2022-08-19T09:02:52;30.63;;;23.15;;
27313;SDS011;14800;48.174;9.798;2022-08-19T09:05:19;27.58;;;22.05;;
27313;SDS011;14800;48.174;9.798;2022-08-19T09:10:49;27.70;;;21.38;;
27313;SDS011;14800;48.174;9.798;2022-08-19T09:16:08;26.48;;;20.63;;
27313;SDS011;14800;48.174;9.798;2022-08-19T09:18:38;26.98;;;20.23;;
27313;SDS011;14800;48.174;9.798;2022-08-19T09:21:04;25.60;;;20.38;;
27313;SDS011;14800;48.174;9.798;2022-08-19T09:23:30;26.17;;;20.67;;
27313;SDS011;14800;48.174;9.798;2022-08-19T09:25:55;23.20;;;18.25;;
27313;SDS011;14800;48.174;9.798;2022-08-19T09:28:21;24.67;;;19.33;;
27313;SDS011;14800;48.174;9.798;2022-08-19T09:30:47;22.92;;;18.83;;
27313;SDS011;14800;48.174;9.798;2022-08-19T09:33:12;24.95;;;20.38;;
27313;SDS011;14800;48.174;9.798;2022-08-19T09:35:38;24.42;;;19.85;;
27313;SDS011;14800;48.174;9.798;2022-08-19T09:38:04;24.30;;;19.90;;
27313;SDS011;14800;48.174;9.798;2022-08-19T09:40:30;24.38;;;19.27;;
27313;SDS011;14800;48.174;9.798;2022-08-19T09:42:56;22.75;;;18.55;;
27313;SDS011;14800;48.174;9.798;2022-08-19T09:45:22;24.55;;;18.60;;
27313;SDS011;14800;48.174;9.798;2022-08-19T09:47:49;22.15;;;18.13;;
27313;SDS011;14800;48.174;9.798;2022-08-19T09:50:16;21.60;;;17.75;;
27313;SDS011;14800;48.174;9.798;2022-08-19T09:52:43;25.35;;;18.15;;
27313;SDS011;14800;48.174;9.798;2022-08-19T09:55:09;18.92;;;15.90;;
27313;SDS011;14800;48.174;9.798;2022-08-19T09:57:36;18.30;;;16.02;;
27313;SDS011;14800;48.174;9.798;2022-08-19T10:00:03;17.98;;;14.63;;
27313;SDS011;14800;48.174;9.798;2022-08-19T10:02:30;16.77;;;14.35;;
27313;SDS011;14800;48.174;9.798;2022-08-19T10:04:56;18.52;;;15.55;;
27313;SDS011;14800;48.174;9.798;2022-08-19T10:07:40;19.48;;;14.85;;
27313;SDS011;14800;48.174;9.798;2022-08-19T10:10:06;16.95;;;13.73;;
27313;SDS011;14800;48.174;9.798;2022-08-19T10:12:33;17.30;;;14.07;;
27313;SDS011;14800;48.174;9.798;2022-08-19T10:14:59;14.90;;;13.27;;
27313;SDS011;14800;48.174;9.798;2022-08-19T10:17:25;13.98;;;12.48;;
27313;SDS011;14800;48.174;9.798;2022-08-19T10:19:51;15.07;;;12.82;;
27313;SDS011;14800;48.174;9.798;2022-08-19T10:22:17;13.32;;;11.80;;
27313;SDS011;14800;48.174;9.798;2022-08-19T10:24:43;13.02;;;11.63;;
27313;SDS011;14800;48.174;9.798;2022-08-19T10:27:11;12.10;;;10.80;;
27313;SDS011;14800;48.174;9.798;2022-08-19T10:29:38;12.23;;;10.73;;
27313;SDS011;14800;48.174;9.798;2022-08-19T10:32:05;12.07;;;10.73;;
27313;SDS011;14800;48.174;9.798;2022-08-19T10:34:33;11.30;;;9.75;;
27313;SDS011;14800;48.174;9.798;2022-08-19T10:37:00;10.30;;;9.18;;
27313;SDS011;14800;48.174;9.798;2022-08-19T10:39:26;10.70;;;9.60;;
27313;SDS011;14800;48.174;9.798;2022-08-19T10:41:54;10.43;;;9.32;;
27313;SDS011;14800;48.174;9.798;2022-08-19T10:44:21;11.00;;;9.88;;
27313;SDS011;14800;48.174;9.798;2022-08-19T10:46:48;11.30;;;10.07;;
27313;SDS011;14800;48.174;9.798;2022-08-19T10:49:13;10.70;;;9.50;;
27313;SDS011;14800;48.174;9.798;2022-08-19T10:51:39;10.50;;;9.30;;
27313;SDS011;14800;48.174;9.798;2022-08-19T10:54:24;13.02;;;9.40;;
27313;SDS011;14800;48.174;9.798;2022-08-19T10:57:11;10.05;;;8.95;;
27313;SDS011;14800;48.174;9.798;2022-08-19T10:59:36;10.60;;;9.40;;
27313;SDS011;14800;48.174;9.798;2022-08-19T11:02:04;11.32;;;9.57;;
27313;SDS011;14800;48.174;9.798;2022-08-19T11:04:32;10.88;;;9.48;;
27313;SDS011;14800;48.174;9.798;2022-08-19T11:06:58;11.23;;;10.02;;
27313;SDS011;14800;48.174;9.798;2022-08-19T11:09:24;10.68;;;9.57;;
27313;SDS011;14800;48.174;9.798;2022-08-19T11:11:54;9.85;;;8.85;;
27313;SDS011;14800;48.174;9.798;2022-08-19T11:14:21;10.38;;;9.27;;
27313;SDS011;14800;48.174;9.798;2022-08-19T11:16:49;10.77;;;9.35;;
27313;SDS011;14800;48.174;9.798;2022-08-19T11:19:16;11.55;;;10.05;;
27313;SDS011;14800;48.174;9.798;2022-08-19T11:21:44;11.57;;;9.52;;
27313;SDS011;14800;48.174;9.798;2022-08-19T11:24:14;10.57;;;9.35;;
27313;SDS011;14800;48.174;9.798;2022-08-19T11:26:45;12.95;;;10.05;;
27313;SDS011;14800;48.174;9.798;2022-08-19T11:29:14;10.85;;;9.27;;
27313;SDS011;14800;48.174;9.798;2022-08-19T11:31:41;10.90;;;9.60;;
27313;SDS011;14800;48.174;9.798;2022-08-19T11:34:09;10.57;;;9.48;;
27313;SDS011;14800;48.174;9.798;2022-08-19T11:36:39;10.63;;;9.35;;
27313;SDS011;14800;48.174;9.798;2022-08-19T11:39:07;10.52;;;9.43;;
27313;SDS011;14800;48.174;9.798;2022-08-19T11:41:34;11.73;;;10.00;;
27313;SDS011;14800;48.174;9.798;2022-08-19T11:44:00;11.55;;;9.27;;
27313;SDS011;14800;48.174;9.798;2022-08-19T11:46:27;12.35;;;9.82;;
27313;SDS011;14800;48.174;9.798;2022-08-19T11:48:57;11.30;;;9.43;;
27313;SDS011;14800;48.174;9.798;2022-08-19T11:51:25;10.07;;;8.68;;
27313;SDS011;14800;48.174;9.798;2022-08-19T11:53:52;9.73;;;8.80;;
27313;SDS011;14800;48.174;9.798;2022-08-19T11:56:20;10.38;;;9.27;;
27313;SDS011;14800;48.174;9.798;2022-08-19T11:58:46;9.27;;;8.38;;
27313;SDS011;14800;48.174;9.798;2022-08-19T12:01:13;11.15;;;9.88;;
27313;SDS011;14800;48.174;9.798;2022-08-19T12:03:41;10.15;;;9.15;;
27313;SDS011;14800;48.174;9.798;2022-08-19T12:06:09;10.73;;;9.52;;
27313;SDS011;14800;48.174;9.798;2022-08-19T12:08:37;9.30;;;8.32;;
27313;SDS011;14800;48.174;9.798;2022-08-19T12:11:03;10.48;;;9.43;;
27313;SDS011;14800;48.174;9.798;2022-08-19T12:13:29;10.75;;;9.65;;
27313;SDS011;14800;48.174;9.798;2022-08-19T12:15:56;11.23;;;9.20;;
27313;SDS011;14800;48.174;9.798;2022-08-19T12:18:22;10.10;;;9.10;;
27313;SDS011;14800;48.174;9.798;2022-08-19T12:20:50;9.55;;;8.50;;
27313;SDS011;14800;48.174;9.798;2022-08-19T12:23:16;9.65;;;8.68;;
27313;SDS011;14800;48.174;9.798;2022-08-19T12:25:44;9.38;;;8.48;;
27313;SDS011;14800;48.174;9.798;2022-08-19T12:28:18;9.45;;;8.50;;
27313;SDS011;14800;48.174;9.798;2022-08-19T12:30:45;9.35;;;8.30;;
27313;SDS011;14800;48.174;9.798;2022-08-19T12:33:11;9.80;;;8.85;;
27313;SDS011;14800;48.174;9.798;2022-08-19T12:35:42;10.23;;;9.02;;
27313;SDS011;14800;48.174;9.798;2022-08-19T12:38:09;9.52;;;8.57;;
27313;SDS011;14800;48.174;9.798;2022-08-19T12:40:35;9.98;;;8.98;;
27313;SDS011;14800;48.174;9.798;2022-08-19T12:43:00;10.63;;;9.52;;
27313;SDS011;14800;48.174;9.798;2022-08-19T12:45:26;10.98;;;9.98;;
27313;SDS011;14800;48.174;9.798;2022-08-19T12:47:52;10.93;;;9.73;;
27313;SDS011;14800;48.174;9.798;2022-08-19T12:50:18;10.52;;;9.52;;
27313;SDS011;14800;48.174;9.798;2022-08-19T12:52:44;11.27;;;10.18;;
27313;SDS011;14800;48.174;9.798;2022-08-19T12:55:10;11.75;;;9.93;;
27313;SDS011;14800;48.174;9.798;2022-08-19T12:57:36;11.80;;;10.60;;
27313;SDS011;14800;48.174;9.798;2022-08-19T13:00:06;11.20;;;9.95;;
27313;SDS011;14800;48.174;9.798;2022-08-19T13:02:38;11.70;;;10.40;;
27313;SDS011;14800;48.174;9.798;2022-08-19T13:05:07;11.43;;;10.23;;
27313;SDS011;14800;48.174;9.798;2022-08-19T13:07:35;12.88;;;10.80;;
27313;SDS011;14800;48.174;9.798;2022-08-19T13:10:02;10.88;;;9.82;;
27313;SDS011;14800;48.174;9.798;2022-08-19T13:12:28;8.63;;;7.82;;
27313;SDS011;14800;48.174;9.798;2022-08-19T13:14:54;9.35;;;8.38;;
27313;SDS011;14800;48.174;9.798;2022-08-19T13:17:20;7.85;;;7.05;;
27313;SDS011;14800;48.174;9.798;2022-08-19T13:19:47;7.43;;;6.82;;
27313;SDS011;14800;48.174;9.798;2022-08-19T13:22:12;7.40;;;6.70;;
27313;SDS011;14800;48.174;9.798;2022-08-19T13:24:38;7.38;;;6.15;;
27313;SDS011;14800;48.174;9.798;2022-08-19T13:27:03;6.45;;;5.88;;
27313;SDS011;14800;48.174;9.798;2022-08-19T13:29:29;5.32;;;4.82;;
27313;SDS011;14800;48.174;9.798;2022-08-19T13:32:13;5.03;;;4.63;;
27313;SDS011;14800;48.174;9.798;2022-08-19T13:34:58;5.13;;;4.73;;
27313;SDS011;14800;48.174;9.798;2022-08-19T13:37:23;5.35;;;4.88;;
27313;SDS011;14800;48.174;9.798;2022-08-19T13:40:09;5.95;;;5.07;;
27313;SDS011;14800;48.174;9.798;2022-08-19T13:42:39;5.80;;;5.30;;
27313;SDS011;14800;48.174;9.798;2022-08-19T13:45:05;5.75;;;5.25;;
27313;SDS011;14800;48.174;9.798;2022-08-19T13:47:32;5.93;;;5.43;;
27313;SDS011;14800;48.174;9.798;2022-08-19T13:49:59;6.80;;;6.20;;
27313;SDS011;14800;48.174;9.798;2022-08-19T13:52:27;7.07;;;6.45;;
27313;SDS011;14800;48.174;9.798;2022-08-19T13:54:52;8.43;;;6.95;;
27313;SDS011;14800;48.174;9.798;2022-08-19T13:57:18;8.00;;;7.20;;
27313;SDS011;14800;48.174;9.798;2022-08-19T13:59:44;8.43;;;7.63;;
27313;SDS011;14800;48.174;9.798;2022-08-19T14:02:10;8.98;;;8.15;;
27313;SDS011;14800;48.174;9.798;2022-08-19T14:04:36;10.75;;;8.73;;
27313;SDS011;14800;48.174;9.798;2022-08-19T14:07:02;10.32;;;9.32;;
27313;SDS011;14800;48.174;9.798;2022-08-19T14:09:28;10.65;;;9.57;;
27313;SDS011;14800;48.174;9.798;2022-08-19T14:11:54;11.60;;;10.40;;
27313;SDS011;14800;48.174;9.798;2022-08-19T14:14:20;11.85;;;10.63;;
27313;SDS011;14800;48.174;9.798;2022-08-19T14:16:46;11.55;;;10.45;;
27313;SDS011;14800;48.174;9.798;2022-08-19T14:19:13;12.80;;;11.48;;
27313;SDS011;14800;48.174;9.798;2022-08-19T14:21:38;13.13;;;11.57;;
27313;SDS011;14800;48.174;9.798;2022-08-19T14:24:06;13.43;;;12.00;;
27313;SDS011;14800;48.174;9.798;2022-08-19T14:26:31;13.52;;;12.15;;
27313;SDS011;14800;48.174;9.798;2022-08-19T14:28:57;13.82;;;12.20;;
27313;SDS011;14800;48.174;9.798;2022-08-19T14:31:23;13.05;;;11.65;;
27313;SDS011;14800;48.174;9.798;2022-08-19T14:33:49;13.13;;;11.10;;
27313;SDS011;14800;48.174;9.798;2022-08-19T14:36:15;13.48;;;12.07;;
27313;SDS011;14800;48.174;9.798;2022-08-19T14:38:42;15.65;;;12.13;;
27313;SDS011;14800;48.174;9.798;2022-08-19T14:41:09;14.10;;;12.45;;
27313;SDS011;14800;48.174;9.798;2022-08-19T14:43:35;13.30;;;11.98;;
27313;SDS011;14800;48.174;9.798;2022-08-19T14:46:01;13.27;;;12.00;;
27313;SDS011;14800;48.174;9.798;2022-08-19T14:48:26;13.32;;;11.93;;
27313;SDS011;14800;48.174;9.798;2022-08-19T14:50:52;13.68;;;12.27;;
27313;SDS011;14800;48.174;9.798;2022-08-19T14:53:18;13.23;;;11.93;;
27313;SDS011;14800;48.174;9.798;2022-08-19T14:55:45;13.45;;;12.23;;